Licenciado Benito Juarez International Airport
MMMX : now visible

Airfield :











YOU CAN JOIN US ON...

 
LOGIN :

Register | Disclaimer

   EN    FR    IT 

 









Legend :    VFR   Marginal VFR   IFR   Intensive IFR   Very Intensive IFR
Visi :
Ceiling :
>= 8 km
>= 3000ft
5 to 8 km
1000 to 3000 ft
1500m to 5 km
500 to 1000 ft
800 to 1500m
200 to 500 ft
< 800m
< 200 ft
Symbols :   Thunderstorms  Fog  Heavy snow  Heavy precipitations  Wind > 20 kt







- Airport Elevation : 7316 ft
- IATA code : MEX


MMMX - Licenciado Benito Juarez International

CURRENT METAR :
  • 210545Z 24004KT 12SM SKC 17/M01 A3023 NOSIG RMK SLP046 52028 960

EXPIRED METARs :
  • 210448Z 15009KT 12SM SKC 18/M02 A3022 NOSIG RMK FU 2ND AND 3TH QUAD
  • 210345Z 16006KT 12SM SKC 19/M02 A3021 NOSIG RMK FU 2ND QUAD

TAF TAF MMMX
Valid from the 21 at 06:00 until the 22 at 12:00 UTC


210426Z 2106/2212 16006KT P6SM SKC TX27/2121Z TN12/2112Z
FM211800 20010KT P6SM SCT020
BECMG 2205/2207 02004KT SKC
MMFR FIR / North America



MET'MAP, your aeronautical weather chart ! - Copyright ORBIFLY December 2007 - Disclaimer

ORBIFLY MET'MAP TEAM :

Programming & Development : Alexandra Zaïnal
Concept & Development : Baudouin d'Aumeries
Co-Development & Prog : Marc-Olivier Méhu
Technical & hardware support : Manuel Goepfert

Contact : metmap@orbifly.com




SOURCES & CREDITS :

   NOAA       Earth
Advisory